sensor_id;sensor_type;location;lat;lon;timestamp;pressure;altitude;pressure_sealevel;temperature;humidity
19457;BME280;9867;48.094;11.478;2023-08-06T00:00:25;94572.31;;;20.28;100.00
19457;BME280;9867;48.094;11.478;2023-08-06T00:02:54;94581.22;;;20.22;100.00
19457;BME280;9867;48.094;11.478;2023-08-06T00:05:23;94575.66;;;19.84;100.00
19457;BME280;9867;48.094;11.478;2023-08-06T00:07:51;94585.44;;;19.48;100.00
19457;BME280;9867;48.094;11.478;2023-08-06T00:10:19;94577.97;;;19.06;100.00
19457;BME280;9867;48.094;11.478;2023-08-06T00:12:47;94580.28;;;19.33;100.00
19457;BME280;9867;48.094;11.478;2023-08-06T00:15:15;94580.84;;;18.99;100.00
19457;BME280;9867;48.094;11.478;2023-08-06T00:17:43;94571.75;;;18.66;100.00
19457;BME280;9867;48.094;11.478;2023-08-06T00:20:11;94582.94;;;18.77;100.00
19457;BME280;9867;48.094;11.478;2023-08-06T00:22:40;94574.09;;;18.53;100.00
19457;BME280;9867;48.094;11.478;2023-08-06T00:25:09;94581.31;;;18.25;100.00
19457;BME280;9867;48.094;11.478;2023-08-06T00:27:36;94577.72;;;18.42;100.00
19457;BME280;9867;48.094;11.478;2023-08-06T00:30:06;94571.47;;;18.42;100.00
19457;BME280;9867;48.094;11.478;2023-08-06T00:32:34;94574.13;;;18.63;100.00
19457;BME280;9867;48.094;11.478;2023-08-06T00:35:02;94557.72;;;18.47;100.00
19457;BME280;9867;48.094;11.478;2023-08-06T00:37:31;94569.16;;;18.77;100.00
19457;BME280;9867;48.094;11.478;2023-08-06T00:40:00;94577.22;;;18.80;100.00
19457;BME280;9867;48.094;11.478;2023-08-06T00:42:28;94567.84;;;18.54;100.00
19457;BME280;9867;48.094;11.478;2023-08-06T00:44:56;94569.41;;;18.45;100.00
19457;BME280;9867;48.094;11.478;2023-08-06T00:47:24;94578.75;;;18.30;100.00
19457;BME280;9867;48.094;11.478;2023-08-06T00:49:52;94565.50;;;18.17;100.00
19457;BME280;9867;48.094;11.478;2023-08-06T00:52:20;94564.69;;;18.21;100.00
19457;BME280;9867;48.094;11.478;2023-08-06T00:54:48;94570.44;;;18.54;100.00
19457;BME280;9867;48.094;11.478;2023-08-06T00:57:18;94555.13;;;18.57;100.00
19457;BME280;9867;48.094;11.478;2023-08-06T00:59:47;94561.63;;;18.80;100.00
19457;BME280;9867;48.094;11.478;2023-08-06T01:02:15;94556.44;;;18.85;100.00
19457;BME280;9867;48.094;11.478;2023-08-06T01:04:43;94543.69;;;18.84;100.00
19457;BME280;9867;48.094;11.478;2023-08-06T01:07:21;94548.38;;;18.87;100.00
19457;BME280;9867;48.094;11.478;2023-08-06T01:09:59;94549.97;;;18.62;100.00
19457;BME280;9867;48.094;11.478;2023-08-06T01:12:38;94549.94;;;18.78;100.00
19457;BME280;9867;48.094;11.478;2023-08-06T01:15:14;94548.13;;;18.68;100.00
19457;BME280;9867;48.094;11.478;2023-08-06T01:17:44;94550.19;;;18.71;100.00
19457;BME280;9867;48.094;11.478;2023-08-06T01:20:12;94540.06;;;18.19;100.00
19457;BME280;9867;48.094;11.478;2023-08-06T01:22:42;94542.13;;;18.67;100.00
19457;BME280;9867;48.094;11.478;2023-08-06T01:25:10;94533.31;;;18.73;100.00
19457;BME280;9867;48.094;11.478;2023-08-06T01:27:46;94529.44;;;18.61;100.00
19457;BME280;9867;48.094;11.478;2023-08-06T01:30:17;94529.66;;;18.69;100.00
19457;BME280;9867;48.094;11.478;2023-08-06T01:32:50;94529.66;;;18.34;100.00
19457;BME280;9867;48.094;11.478;2023-08-06T01:35:21;94518.78;;;18.42;100.00
19457;BME280;9867;48.094;11.478;2023-08-06T01:37:52;94524.19;;;18.20;100.00
19457;BME280;9867;48.094;11.478;2023-08-06T01:40:21;94528.38;;;18.31;100.00
19457;BME280;9867;48.094;11.478;2023-08-06T01:42:49;94523.69;;;18.13;100.00
19457;BME280;9867;48.094;11.478;2023-08-06T01:45:17;94528.88;;;18.33;100.00
19457;BME280;9867;48.094;11.478;2023-08-06T01:47:45;94528.09;;;18.43;100.00
19457;BME280;9867;48.094;11.478;2023-08-06T01:50:13;94521.38;;;18.37;100.00
19457;BME280;9867;48.094;11.478;2023-08-06T01:52:41;94520.56;;;18.26;100.00
19457;BME280;9867;48.094;11.478;2023-08-06T01:55:10;94520.28;;;18.08;100.00
19457;BME280;9867;48.094;11.478;2023-08-06T01:57:38;94515.91;;;18.28;100.00
19457;BME280;9867;48.094;11.478;2023-08-06T02:00:07;94514.06;;;18.03;100.00
19457;BME280;9867;48.094;11.478;2023-08-06T02:02:41;94506.53;;;18.12;100.00
19457;BME280;9867;48.094;11.478;2023-08-06T02:05:10;94508.31;;;17.96;100.00
19457;BME280;9867;48.094;11.478;2023-08-06T02:07:39;94507.00;;;17.79;100.00
19457;BME280;9867;48.094;11.478;2023-08-06T02:10:08;94506.78;;;18.05;100.00
19457;BME280;9867;48.094;11.478;2023-08-06T02:12:37;94495.34;;;18.01;100.00
19457;BME280;9867;48.094;11.478;2023-08-06T02:15:06;94499.00;;;18.00;100.00
19457;BME280;9867;48.094;11.478;2023-08-06T02:17:34;94499.50;;;17.82;100.00
19457;BME280;9867;48.094;11.478;2023-08-06T02:20:02;94496.16;;;17.92;100.00
19457;BME280;9867;48.094;11.478;2023-08-06T02:22:30;94490.44;;;18.05;100.00
19457;BME280;9867;48.094;11.478;2023-08-06T02:24:58;94478.75;;;17.92;100.00
19457;BME280;9867;48.094;11.478;2023-08-06T02:27:26;94490.44;;;18.05;100.00
19457;BME280;9867;48.094;11.478;2023-08-06T02:29:56;94493.00;;;17.85;100.00
19457;BME280;9867;48.094;11.478;2023-08-06T02:32:24;94484.97;;;17.96;100.00
19457;BME280;9867;48.094;11.478;2023-08-06T02:34:52;94481.34;;;18.02;100.00
19457;BME280;9867;48.094;11.478;2023-08-06T02:37:20;94479.25;;;17.79;100.00
19457;BME280;9867;48.094;11.478;2023-08-06T02:39:48;94470.44;;;17.85;100.00
19457;BME280;9867;48.094;11.478;2023-08-06T02:42:16;94466.31;;;17.94;100.00
19457;BME280;9867;48.094;11.478;2023-08-06T02:44:45;94453.06;;;17.91;100.00
19457;BME280;9867;48.094;11.478;2023-08-06T02:47:14;94447.34;;;18.24;100.00
19457;BME280;9867;48.094;11.478;2023-08-06T02:49:43;94442.66;;;18.06;100.00
19457;BME280;9867;48.094;11.478;2023-08-06T02:52:11;94456.69;;;18.05;100.00
19457;BME280;9867;48.094;11.478;2023-08-06T02:54:40;94450.72;;;17.99;100.00
19457;BME280;9867;48.094;11.478;2023-08-06T02:57:08;94444.75;;;18.14;100.00
19457;BME280;9867;48.094;11.478;2023-08-06T02:59:36;94448.38;;;18.03;100.00
19457;BME280;9867;48.094;11.478;2023-08-06T03:02:18;94444.75;;;17.99;100.00
19457;BME280;9867;48.094;11.478;2023-08-06T03:05:09;94439.28;;;17.95;100.00
19457;BME280;9867;48.094;11.478;2023-08-06T03:07:42;94446.56;;;17.83;100.00
19457;BME280;9867;48.094;11.478;2023-08-06T03:10:16;94453.56;;;17.83;100.00
19457;BME280;9867;48.094;11.478;2023-08-06T03:12:44;94460.28;;;17.79;100.00
19457;BME280;9867;48.094;11.478;2023-08-06T03:15:12;94461.13;;;17.94;100.00
19457;BME280;9867;48.094;11.478;2023-08-06T03:17:44;94465.75;;;17.97;100.00
19457;BME280;9867;48.094;11.478;2023-08-06T03:20:12;94456.44;;;18.12;100.00
19457;BME280;9867;48.094;11.478;2023-08-06T03:22:41;94453.06;;;18.11;100.00
19457;BME280;9867;48.094;11.478;2023-08-06T03:25:09;94438.53;;;18.05;100.00
19457;BME280;9867;48.094;11.478;2023-08-06T03:27:40;94438.00;;;18.18;100.00
19457;BME280;9867;48.094;11.478;2023-08-06T03:30:08;94448.66;;;18.17;100.00
19457;BME280;9867;48.094;11.478;2023-08-06T03:32:38;94446.53;;;17.73;100.00
19457;BME280;9867;48.094;11.478;2023-08-06T03:35:08;94438.25;;;17.81;100.00
19457;BME280;9867;48.094;11.478;2023-08-06T03:37:36;94449.94;;;17.99;100.00
19457;BME280;9867;48.094;11.478;2023-08-06T03:40:06;94443.97;;;18.09;100.00
19457;BME280;9867;48.094;11.478;2023-08-06T03:42:34;94445.25;;;18.01;100.00
19457;BME280;9867;48.094;11.478;2023-08-06T03:45:03;94446.81;;;17.82;100.00
19457;BME280;9867;48.094;11.478;2023-08-06T03:47:32;94440.84;;;18.12;100.00
19457;BME280;9867;48.094;11.478;2023-08-06T03:50:00;94442.66;;;18.01;100.00
19457;BME280;9867;48.094;11.478;2023-08-06T03:52:29;94432.78;;;17.98;100.00
19457;BME280;9867;48.094;11.478;2023-08-06T03:54:57;94437.22;;;18.18;100.00
19457;BME280;9867;48.094;11.478;2023-08-06T03:57:25;94427.59;;;17.98;100.00
19457;BME280;9867;48.094;11.478;2023-08-06T03:59:53;94436.41;;;17.71;100.00
19457;BME280;9867;48.094;11.478;2023-08-06T04:02:24;94432.81;;;17.88;100.00
19457;BME280;9867;48.094;11.478;2023-08-06T04:04:52;94429.44;;;17.92;100.00
19457;BME280;9867;48.094;11.478;2023-08-06T04:07:20;94434.03;;;17.60;100.00
19457;BME280;9867;48.094;11.478;2023-08-06T04:09:58;94437.72;;;17.84;100.00
19457;BME280;9867;48.094;11.478;2023-08-06T04:12:26;94428.13;;;17.75;100.00
19457;BME280;9867;48.094;11.478;2023-08-06T04:14:58;94433.75;;;17.51;100.00
19457;BME280;9867;48.094;11.478;2023-08-06T04:17:27;94439.28;;;17.70;100.00
19457;BME280;9867;48.094;11.478;2023-08-06T04:19:55;94438.25;;;17.81;100.00
19457;BME280;9867;48.094;11.478;2023-08-06T04:22:25;94445.50;;;17.69;100.00
19457;BME280;9867;48.094;11.478;2023-08-06T04:24:53;94437.84;;;17.27;100.00
19457;BME280;9867;48.094;11.478;2023-08-06T04:27:22;94444.63;;;17.48;100.00
19457;BME280;9867;48.094;11.478;2023-08-06T04:29:51;94445.47;;;17.64;100.00
19457;BME280;9867;48.094;11.478;2023-08-06T04:32:19;94436.69;;;17.80;100.00
19457;BME280;9867;48.094;11.478;2023-08-06T04:34:51;94441.88;;;17.65;100.00
19457;BME280;9867;48.094;11.478;2023-08-06T04:37:19;94444.72;;;17.73;100.00
19457;BME280;9867;48.094;11.478;2023-08-06T04:39:47;94445.75;;;17.78;100.00
19457;BME280;9867;48.094;11.478;2023-08-06T04:42:15;94447.56;;;17.72;100.00
19457;BME280;9867;48.094;11.478;2023-08-06T04:44:44;94453.56;;;17.83;100.00
19457;BME280;9867;48.094;11.478;2023-08-06T04:47:12;94447.06;;;17.85;100.00
19457;BME280;9867;48.094;11.478;2023-08-06T04:49:41;94445.53;;;17.99;100.00
19457;BME280;9867;48.094;11.478;2023-08-06T04:52:09;94448.41;;;18.18;100.00
19457;BME280;9867;48.094;11.478;2023-08-06T04:54:37;94452.28;;;18.31;100.00
19457;BME280;9867;48.094;11.478;2023-08-06T04:57:05;94444.22;;;18.32;100.00
19457;BME280;9867;48.094;11.478;2023-08-06T04:59:33;94440.28;;;18.50;100.00
19457;BME280;9867;48.094;11.478;2023-08-06T05:02:03;94436.13;;;18.54;100.00
19457;BME280;9867;48.094;11.478;2023-08-06T05:04:31;94429.69;;;18.31;100.00
19457;BME280;9867;48.094;11.478;2023-08-06T05:06:59;94434.09;;;18.36;100.00
19457;BME280;9867;48.094;11.478;2023-08-06T05:09:28;94433.84;;;18.07;100.00
19457;BME280;9867;48.094;11.478;2023-08-06T05:11:56;94434.03;;;18.66;100.00
19457;BME280;9867;48.094;11.478;2023-08-06T05:14:24;94425.50;;;18.66;100.00
19457;BME280;9867;48.094;11.478;2023-08-06T05:16:52;94440.53;;;18.74;100.00
19457;BME280;9867;48.094;11.478;2023-08-06T05:19:21;94431.19;;;18.68;100.00
19457;BME280;9867;48.094;11.478;2023-08-06T05:21:49;94427.34;;;18.40;100.00
19457;BME280;9867;48.094;11.478;2023-08-06T05:24:17;94438.50;;;18.66;100.00
19457;BME280;9867;48.094;11.478;2023-08-06T05:26:48;94414.84;;;18.52;100.00
19457;BME280;9867;48.094;11.478;2023-08-06T05:29:16;94440.72;;;18.93;100.00
19457;BME280;9867;48.094;11.478;2023-08-06T05:31:44;94457.69;;;18.75;100.00
19457;BME280;9867;48.094;11.478;2023-08-06T05:34:12;94445.66;;;18.94;100.00
19457;BME280;9867;48.094;11.478;2023-08-06T05:36:41;94445.38;;;19.11;100.00
19457;BME280;9867;48.094;11.478;2023-08-06T05:39:09;94450.91;;;18.84;100.00
19457;BME280;9867;48.094;11.478;2023-08-06T05:41:37;94446.97;;;18.97;100.00
19457;BME280;9867;48.094;11.478;2023-08-06T05:44:05;94445.66;;;19.04;100.00
19457;BME280;9867;48.094;11.478;2023-08-06T05:46:33;94449.44;;;19.32;100.00
19457;BME280;9867;48.094;11.478;2023-08-06T05:49:01;94447.00;;;19.46;100.00
19457;BME280;9867;48.094;11.478;2023-08-06T05:51:29;94443.28;;;19.13;100.00
19457;BME280;9867;48.094;11.478;2023-08-06T05:53:58;94437.50;;;19.21;100.00
19457;BME280;9867;48.094;11.478;2023-08-06T05:56:26;94439.13;;;19.61;100.00
19457;BME280;9867;48.094;11.478;2023-08-06T05:58:54;94438.00;;;19.83;100.00
19457;BME280;9867;48.094;11.478;2023-08-06T06:01:22;94434.25;;;19.50;100.00
19457;BME280;9867;48.094;11.478;2023-08-06T06:03:50;94429.34;;;19.43;100.00
19457;BME280;9867;48.094;11.478;2023-08-06T06:06:18;94435.66;;;19.81;100.00
19457;BME280;9867;48.094;11.478;2023-08-06T06:08:46;94438.78;;;19.78;100.00
19457;BME280;9867;48.094;11.478;2023-08-06T06:11:16;94443.69;;;20.19;100.00
19457;BME280;9867;48.094;11.478;2023-08-06T06:13:46;94447.38;;;19.29;100.00
19457;BME280;9867;48.094;11.478;2023-08-06T06:16:14;94454.81;;;19.46;100.00
19457;BME280;9867;48.094;11.478;2023-08-06T06:18:42;94451.09;;;19.08;100.00
19457;BME280;9867;48.094;11.478;2023-08-06T06:21:10;94439.19;;;19.56;100.00
19457;BME280;9867;48.094;11.478;2023-08-06T06:23:38;94452.59;;;19.24;100.00
19457;BME280;9867;48.094;11.478;2023-08-06T06:26:05;94446.56;;;19.34;100.00
19457;BME280;9867;48.094;11.478;2023-08-06T06:28:35;94446.47;;;19.59;100.00
19457;BME280;9867;48.094;11.478;2023-08-06T06:31:03;94448.50;;;20.06;100.00
19457;BME280;9867;48.094;11.478;2023-08-06T06:33:31;94444.03;;;19.73;100.00
19457;BME280;9867;48.094;11.478;2023-08-06T06:35:59;94445.34;;;19.70;100.00
19457;BME280;9867;48.094;11.478;2023-08-06T06:38:26;94448.84;;;19.40;100.00
19457;BME280;9867;48.094;11.478;2023-08-06T06:40:55;94438.78;;;19.29;100.00
19457;BME280;9867;48.094;11.478;2023-08-06T06:43:23;94440.88;;;19.22;100.00
19457;BME280;9867;48.094;11.478;2023-08-06T06:45:57;94447.53;;;19.43;100.00
19457;BME280;9867;48.094;11.478;2023-08-06T06:48:26;94454.06;;;19.90;100.00
19457;BME280;9867;48.094;11.478;2023-08-06T06:50:55;94436.44;;;19.27;100.00
19457;BME280;9867;48.094;11.478;2023-08-06T06:53:23;94446.94;;;19.66;100.00
19457;BME280;9867;48.094;11.478;2023-08-06T06:55:54;94451.72;;;19.39;100.00
19457;BME280;9867;48.094;11.478;2023-08-06T06:58:22;94432.00;;;19.33;100.00
19457;BME280;9867;48.094;11.478;2023-08-06T07:00:50;94446.00;;;19.86;100.00
19457;BME280;9867;48.094;11.478;2023-08-06T07:03:20;94452.41;;;20.04;100.00
19457;BME280;9867;48.094;11.478;2023-08-06T07:05:48;94449.41;;;20.21;100.00
19457;BME280;9867;48.094;11.478;2023-08-06T07:08:17;94453.97;;;20.34;100.00
19457;BME280;9867;48.094;11.478;2023-08-06T07:10:44;94462.31;;;20.02;100.00
19457;BME280;9867;48.094;11.478;2023-08-06T07:13:13;94473.59;;;20.26;100.00
19457;BME280;9867;48.094;11.478;2023-08-06T07:15:40;94467.69;;;19.77;100.00
19457;BME280;9867;48.094;11.478;2023-08-06T07:18:08;94479.59;;;19.33;100.00
19457;BME280;9867;48.094;11.478;2023-08-06T07:20:38;94466.13;;;19.21;100.00
19457;BME280;9867;48.094;11.478;2023-08-06T07:23:06;94456.94;;;18.64;100.00
19457;BME280;9867;48.094;11.478;2023-08-06T07:25:34;94467.34;;;18.64;100.00
19457;BME280;9867;48.094;11.478;2023-08-06T07:28:02;94471.22;;;18.62;100.00
19457;BME280;9867;48.094;11.478;2023-08-06T07:30:30;94455.38;;;18.63;100.00
19457;BME280;9867;48.094;11.478;2023-08-06T07:32:59;94456.81;;;19.05;100.00
19457;BME280;9867;48.094;11.478;2023-08-06T07:35:28;94455.34;;;18.84;100.00
19457;BME280;9867;48.094;11.478;2023-08-06T07:37:58;94449.78;;;19.11;100.00
19457;BME280;9867;48.094;11.478;2023-08-06T07:40:26;94467.25;;;18.90;100.00
19457;BME280;9867;48.094;11.478;2023-08-06T07:42:54;94454.81;;;18.87;100.00
19457;BME280;9867;48.094;11.478;2023-08-06T07:45:22;94444.66;;;19.60;100.00
19457;BME280;9867;48.094;11.478;2023-08-06T07:47:50;94444.97;;;19.38;100.00
19457;BME280;9867;48.094;11.478;2023-08-06T07:50:18;94437.63;;;19.55;100.00
19457;BME280;9867;48.094;11.478;2023-08-06T07:52:46;94443.63;;;19.46;100.00
19457;BME280;9867;48.094;11.478;2023-08-06T07:55:15;94437.59;;;19.99;100.00
19457;BME280;9867;48.094;11.478;2023-08-06T07:57:43;94440.28;;;19.84;100.00
19457;BME280;9867;48.094;11.478;2023-08-06T08:00:11;94431.19;;;20.21;100.00
19457;BME280;9867;48.094;11.478;2023-08-06T08:02:40;94423.78;;;20.04;100.00
19457;BME280;9867;48.094;11.478;2023-08-06T08:05:08;94428.97;;;19.65;100.00
19457;BME280;9867;48.094;11.478;2023-08-06T08:07:36;94435.47;;;20.06;100.00
19457;BME280;9867;48.094;11.478;2023-08-06T08:10:05;94429.03;;;19.94;100.00
19457;BME280;9867;48.094;11.478;2023-08-06T08:12:34;94429.31;;;20.26;100.00
19457;BME280;9867;48.094;11.478;2023-08-06T08:15:03;94427.84;;;20.97;100.00
19457;BME280;9867;48.094;11.478;2023-08-06T08:17:31;94443.31;;;21.12;100.00
19457;BME280;9867;48.094;11.478;2023-08-06T08:19:59;94430.59;;;20.58;100.00
19457;BME280;9867;48.094;11.478;2023-08-06T08:22:27;94422.63;;;20.73;100.00
19457;BME280;9867;48.094;11.478;2023-08-06T08:24:55;94414.09;;;21.34;100.00
19457;BME280;9867;48.094;11.478;2023-08-06T08:27:22;94424.00;;;20.65;100.00
19457;BME280;9867;48.094;11.478;2023-08-06T08:29:52;94425.84;;;20.89;100.00
19457;BME280;9867;48.094;11.478;2023-08-06T08:32:20;94423.41;;;20.97;100.00
19457;BME280;9867;48.094;11.478;2023-08-06T08:34:48;94431.31;;;21.35;100.00
19457;BME280;9867;48.094;11.478;2023-08-06T08:37:16;94432.34;;;20.91;100.00
19457;BME280;9867;48.094;11.478;2023-08-06T08:39:44;94421.03;;;20.77;100.00
19457;BME280;9867;48.094;11.478;2023-08-06T08:42:12;94431.66;;;21.04;100.00
19457;BME280;9867;48.094;11.478;2023-08-06T08:44:41;94428.50;;;20.31;100.00
19457;BME280;9867;48.094;11.478;2023-08-06T08:47:11;94447.81;;;19.41;100.00
19457;BME280;9867;48.094;11.478;2023-08-06T08:49:43;94444.16;;;19.48;100.00
19457;BME280;9867;48.094;11.478;2023-08-06T08:52:14;94463.94;;;19.38;100.00
19457;BME280;9867;48.094;11.478;2023-08-06T08:54:43;94441.69;;;19.71;100.00
19457;BME280;9867;48.094;11.478;2023-08-06T08:57:12;94443.16;;;20.22;100.00
19457;BME280;9867;48.094;11.478;2023-08-06T08:59:40;94436.66;;;19.85;100.00
19457;BME280;9867;48.094;11.478;2023-08-06T09:02:11;94466.00;;;19.47;100.00
19457;BME280;9867;48.094;11.478;2023-08-06T09:04:40;94456.00;;;19.74;100.00
19457;BME280;9867;48.094;11.478;2023-08-06T09:07:11;94504.41;;;19.00;100.00
19457;BME280;9867;48.094;11.478;2023-08-06T09:09:42;94454.81;;;18.87;100.00
19457;BME280;9867;48.094;11.478;2023-08-06T09:12:14;94467.06;;;18.46;100.00
19457;BME280;9867;48.094;11.478;2023-08-06T09:14:43;94456.16;;;18.33;100.00
19457;BME280;9867;48.094;11.478;2023-08-06T09:17:12;94459.28;;;18.35;100.00
19457;BME280;9867;48.094;11.478;2023-08-06T09:19:42;94440.81;;;18.57;100.00
19457;BME280;9867;48.094;11.478;2023-08-06T09:22:14;94465.78;;;18.38;100.00
19457;BME280;9867;48.094;11.478;2023-08-06T09:24:43;94460.03;;;18.56;100.00
19457;BME280;9867;48.094;11.478;2023-08-06T09:27:11;94437.53;;;19.16;100.00
19457;BME280;9867;48.094;11.478;2023-08-06T09:29:41;94438.44;;;19.51;100.00
19457;BME280;9867;48.094;11.478;2023-08-06T09:32:12;94463.59;;;19.01;100.00
19457;BME280;9867;48.094;11.478;2023-08-06T09:34:42;94440.25;;;19.50;100.00
19457;BME280;9867;48.094;11.478;2023-08-06T09:37:10;94442.41;;;19.33;100.00
19457;BME280;9867;48.094;11.478;2023-08-06T09:39:39;94473.19;;;19.11;100.00
19457;BME280;9867;48.094;11.478;2023-08-06T09:42:07;94431.38;;;19.56;100.00
19457;BME280;9867;48.094;11.478;2023-08-06T09:44:35;94449.00;;;19.64;100.00
19457;BME280;9867;48.094;11.478;2023-08-06T09:47:05;94436.59;;;19.46;100.00
19457;BME280;9867;48.094;11.478;2023-08-06T09:49:42;94482.59;;;19.66;100.00
19457;BME280;9867;48.094;11.478;2023-08-06T09:52:13;94485.25;;;18.66;100.00
19457;BME280;9867;48.094;11.478;2023-08-06T09:54:43;94442.41;;;19.33;100.00
19457;BME280;9867;48.094;11.478;2023-08-06T09:57:11;94470.19;;;19.37;100.00
19457;BME280;9867;48.094;11.478;2023-08-06T09:59:40;94469.31;;;20.06;100.00
19457;BME280;9867;48.094;11.478;2023-08-06T10:02:13;94448.78;;;19.61;100.00
19457;BME280;9867;48.094;11.478;2023-08-06T10:04:44;94460.22;;;19.65;100.00
19457;BME280;9867;48.094;11.478;2023-08-06T10:07:21;94451.63;;;20.37;100.00
19457;BME280;9867;48.094;11.478;2023-08-06T10:09:50;94464.53;;;20.53;100.00
19457;BME280;9867;48.094;11.478;2023-08-06T10:12:19;94471.88;;;19.72;100.00
19457;BME280;9867;48.094;11.478;2023-08-06T10:14:47;94479.97;;;19.71;100.00
19457;BME280;9867;48.094;11.478;2023-08-06T10:17:17;94465.06;;;20.16;100.00
19457;BME280;9867;48.094;11.478;2023-08-06T10:19:47;94482.25;;;20.17;100.00
19457;BME280;9867;48.094;11.478;2023-08-06T10:22:16;94461.94;;;20.53;100.00
19457;BME280;9867;48.094;11.478;2023-08-06T10:24:46;94477.19;;;19.96;100.00
19457;BME280;9867;48.094;11.478;2023-08-06T10:27:19;94467.00;;;20.05;100.00
19457;BME280;9867;48.094;11.478;2023-08-06T10:29:47;94483.34;;;19.71;100.00
19457;BME280;9867;48.094;11.478;2023-08-06T10:32:16;94518.31;;;19.55;100.00
19457;BME280;9867;48.094;11.478;2023-08-06T10:34:56;94482.41;;;18.62;100.00
19457;BME280;9867;48.094;11.478;2023-08-06T10:37:34;94478.31;;;19.26;100.00
19457;BME280;9867;48.094;11.478;2023-08-06T10:40:05;94481.88;;;18.65;100.00
19457;BME280;9867;48.094;11.478;2023-08-06T10:42:34;94510.66;;;19.04;100.00
19457;BME280;9867;48.094;11.478;2023-08-06T10:45:12;94501.03;;;19.69;100.00
19457;BME280;9867;48.094;11.478;2023-08-06T10:47:45;94492.69;;;19.08;100.00
19457;BME280;9867;48.094;11.478;2023-08-06T10:50:15;94487.88;;;19.40;100.00
19457;BME280;9867;48.094;11.478;2023-08-06T10:52:44;94477.56;;;19.25;100.00
19457;BME280;9867;48.094;11.478;2023-08-06T10:55:13;94480.13;;;19.85;100.00
19457;BME280;9867;48.094;11.478;2023-08-06T10:57:41;94503.72;;;19.59;100.00
19457;BME280;9867;48.094;11.478;2023-08-06T11:00:10;94480.94;;;19.16;100.00
19457;BME280;9867;48.094;11.478;2023-08-06T11:02:43;94482.91;;;19.59;100.00
19457;BME280;9867;48.094;11.478;2023-08-06T11:05:12;94477.72;;;19.98;100.00
19457;BME280;9867;48.094;11.478;2023-08-06T11:07:41;94470.88;;;20.70;100.00
19457;BME280;9867;48.094;11.478;2023-08-06T11:10:11;94467.28;;;19.98;100.00
19457;BME280;9867;48.094;11.478;2023-08-06T11:12:39;94471.16;;;20.35;100.00
19457;BME280;9867;48.094;11.478;2023-08-06T11:15:08;94472.88;;;19.82;100.00
19457;BME280;9867;48.094;11.478;2023-08-06T11:17:37;94505.19;;;19.75;100.00
19457;BME280;9867;48.094;11.478;2023-08-06T11:20:07;94500.69;;;19.32;100.00
19457;BME280;9867;48.094;11.478;2023-08-06T11:22:36;94482.44;;;19.37;100.00
19457;BME280;9867;48.094;11.478;2023-08-06T11:25:07;94502.13;;;18.84;100.00
19457;BME280;9867;48.094;11.478;2023-08-06T11:27:35;94488.72;;;19.31;100.00
19457;BME280;9867;48.094;11.478;2023-08-06T11:30:04;94520.06;;;18.85;100.00
19457;BME280;9867;48.094;11.478;2023-08-06T11:32:32;94497.97;;;18.83;100.00
19457;BME280;9867;48.094;11.478;2023-08-06T11:35:09;94498.03;;;19.37;100.00
19457;BME280;9867;48.094;11.478;2023-08-06T11:37:39;94510.31;;;19.26;100.00
19457;BME280;9867;48.094;11.478;2023-08-06T11:40:14;94504.06;;;19.32;100.00
19457;BME280;9867;48.094;11.478;2023-08-06T11:42:42;94496.31;;;19.77;100.00
19457;BME280;9867;48.094;11.478;2023-08-06T11:45:11;94495.47;;;19.86;100.00
19457;BME280;9867;48.094;11.478;2023-08-06T11:47:39;94486.34;;;20.28;100.00
19457;BME280;9867;48.094;11.478;2023-08-06T11:50:08;94498.06;;;20.30;100.00
19457;BME280;9867;48.094;11.478;2023-08-06T11:52:39;94533.25;;;20.28;100.00
19457;BME280;9867;48.094;11.478;2023-08-06T11:55:08;94526.09;;;19.60;100.00
19457;BME280;9867;48.094;11.478;2023-08-06T11:57:39;94517.53;;;19.39;100.00
19457;BME280;9867;48.094;11.478;2023-08-06T12:00:12;94534.38;;;19.67;100.00
19457;BME280;9867;48.094;11.478;2023-08-06T12:02:42;94543.44;;;19.80;100.00
19457;BME280;9867;48.094;11.478;2023-08-06T12:05:11;94524.34;;;19.90;100.00
19457;BME280;9867;48.094;11.478;2023-08-06T12:07:41;94526.72;;;19.22;100.00
19457;BME280;9867;48.094;11.478;2023-08-06T12:10:09;94526.09;;;19.45;100.00
19457;BME280;9867;48.094;11.478;2023-08-06T12:12:39;94509.53;;;19.31;100.00
19457;BME280;9867;48.094;11.478;2023-08-06T12:15:07;94514.66;;;19.51;100.00
19457;BME280;9867;48.094;11.478;2023-08-06T12:17:36;94532.81;;;19.61;100.00
19457;BME280;9867;48.094;11.478;2023-08-06T12:20:05;94521.31;;;18.98;100.00
19457;BME280;9867;48.094;11.478;2023-08-06T12:22:34;94517.19;;;19.66;100.00
19457;BME280;9867;48.094;11.478;2023-08-06T12:25:03;94521.94;;;19.54;100.00
19457;BME280;9867;48.094;11.478;2023-08-06T12:27:34;94523.06;;;19.87;100.00
19457;BME280;9867;48.094;11.478;2023-08-06T12:30:05;94514.41;;;19.42;100.00
19457;BME280;9867;48.094;11.478;2023-08-06T12:32:34;94518.97;;;19.76;100.00
19457;BME280;9867;48.094;11.478;2023-08-06T12:35:02;94522.47;;;19.41;100.00
19457;BME280;9867;48.094;11.478;2023-08-06T12:37:31;94514.22;;;19.24;100.00
19457;BME280;9867;48.094;11.478;2023-08-06T12:39:59;94510.75;;;19.49;100.00
19457;BME280;9867;48.094;11.478;2023-08-06T12:42:47;94546.97;;;19.35;100.00
19457;BME280;9867;48.094;11.478;2023-08-06T12:45:17;94527.81;;;19.00;100.00
19457;BME280;9867;48.094;11.478;2023-08-06T12:47:47;94538.47;;;18.43;100.00
19457;BME280;9867;48.094;11.478;2023-08-06T12:50:16;94547.31;;;18.47;100.00
19457;BME280;9867;48.094;11.478;2023-08-06T12:52:45;94549.16;;;18.36;100.00
19457;BME280;9867;48.094;11.478;2023-08-06T12:55:13;94550.69;;;18.22;100.00
19457;BME280;9867;48.094;11.478;2023-08-06T12:57:41;94566.56;;;18.41;100.00
19457;BME280;9867;48.094;11.478;2023-08-06T13:00:26;94548.78;;;17.77;100.00